sensor_id;sensor_type;location;lat;lon;timestamp;temperature;humidity
15355;DHT22;7777;52.254;9.618;2023-08-06T00:00:38;16.80;99.90
15355;DHT22;7777;52.254;9.618;2023-08-06T00:03:04;16.70;99.90
15355;DHT22;7777;52.254;9.618;2023-08-06T00:05:30;16.70;99.90
15355;DHT22;7777;52.254;9.618;2023-08-06T00:07:56;16.70;99.90
15355;DHT22;7777;52.254;9.618;2023-08-06T00:10:21;16.70;99.90
15355;DHT22;7777;52.254;9.618;2023-08-06T00:12:47;16.70;99.90
15355;DHT22;7777;52.254;9.618;2023-08-06T00:15:14;16.70;99.90
15355;DHT22;7777;52.254;9.618;2023-08-06T00:17:40;16.70;99.90
15355;DHT22;7777;52.254;9.618;2023-08-06T00:20:06;16.70;99.90
15355;DHT22;7777;52.254;9.618;2023-08-06T00:22:33;16.70;99.90
15355;DHT22;7777;52.254;9.618;2023-08-06T00:24:59;16.70;99.90
15355;DHT22;7777;52.254;9.618;2023-08-06T00:27:25;16.70;99.90
15355;DHT22;7777;52.254;9.618;2023-08-06T00:29:51;16.70;99.90
15355;DHT22;7777;52.254;9.618;2023-08-06T00:32:17;16.70;99.90
15355;DHT22;7777;52.254;9.618;2023-08-06T00:34:43;16.70;99.90
15355;DHT22;7777;52.254;9.618;2023-08-06T00:37:09;16.70;99.90
15355;DHT22;7777;52.254;9.618;2023-08-06T00:39:35;16.70;99.90
15355;DHT22;7777;52.254;9.618;2023-08-06T00:42:00;16.70;99.90
15355;DHT22;7777;52.254;9.618;2023-08-06T00:44:26;16.70;99.90
15355;DHT22;7777;52.254;9.618;2023-08-06T00:46:52;16.60;99.90
15355;DHT22;7777;52.254;9.618;2023-08-06T00:49:18;16.70;99.90
15355;DHT22;7777;52.254;9.618;2023-08-06T00:51:44;16.60;99.90
15355;DHT22;7777;52.254;9.618;2023-08-06T00:54:10;16.70;99.90
15355;DHT22;7777;52.254;9.618;2023-08-06T00:56:36;16.70;99.90
15355;DHT22;7777;52.254;9.618;2023-08-06T00:59:06;16.70;99.90
15355;DHT22;7777;52.254;9.618;2023-08-06T01:01:32;16.60;99.90
15355;DHT22;7777;52.254;9.618;2023-08-06T01:03:58;16.60;99.90
15355;DHT22;7777;52.254;9.618;2023-08-06T01:06:39;16.60;99.90
15355;DHT22;7777;52.254;9.618;2023-08-06T01:09:45;16.60;99.90
15355;DHT22;7777;52.254;9.618;2023-08-06T01:15:23;16.60;99.90
15355;DHT22;7777;52.254;9.618;2023-08-06T01:17:50;16.60;99.90
15355;DHT22;7777;52.254;9.618;2023-08-06T01:20:17;16.60;99.90
15355;DHT22;7777;52.254;9.618;2023-08-06T01:22:42;16.60;99.90
15355;DHT22;7777;52.254;9.618;2023-08-06T01:25:08;16.60;99.90
15355;DHT22;7777;52.254;9.618;2023-08-06T01:27:43;16.60;99.90
15355;DHT22;7777;52.254;9.618;2023-08-06T01:30:17;16.60;99.90
15355;DHT22;7777;52.254;9.618;2023-08-06T01:32:51;16.60;99.90
15355;DHT22;7777;52.254;9.618;2023-08-06T01:35:19;16.60;99.90
15355;DHT22;7777;52.254;9.618;2023-08-06T01:37:47;16.60;99.90
15355;DHT22;7777;52.254;9.618;2023-08-06T01:40:14;16.60;99.90
15355;DHT22;7777;52.254;9.618;2023-08-06T01:42:40;16.60;99.90
15355;DHT22;7777;52.254;9.618;2023-08-06T01:45:09;16.60;99.90
15355;DHT22;7777;52.254;9.618;2023-08-06T01:47:38;16.60;99.90
15355;DHT22;7777;52.254;9.618;2023-08-06T01:50:04;16.50;99.90
15355;DHT22;7777;52.254;9.618;2023-08-06T01:52:30;16.60;99.90
15355;DHT22;7777;52.254;9.618;2023-08-06T01:54:56;16.60;99.90
15355;DHT22;7777;52.254;9.618;2023-08-06T01:57:22;16.60;99.90
15355;DHT22;7777;52.254;9.618;2023-08-06T01:59:48;16.50;99.90
15355;DHT22;7777;52.254;9.618;2023-08-06T02:02:13;16.50;99.90
15355;DHT22;7777;52.254;9.618;2023-08-06T02:04:39;16.50;99.90
15355;DHT22;7777;52.254;9.618;2023-08-06T02:07:05;16.50;99.90
15355;DHT22;7777;52.254;9.618;2023-08-06T02:09:31;16.50;99.90
15355;DHT22;7777;52.254;9.618;2023-08-06T02:11:57;16.50;99.90
15355;DHT22;7777;52.254;9.618;2023-08-06T02:14:22;16.50;99.90
15355;DHT22;7777;52.254;9.618;2023-08-06T02:16:48;16.40;99.90
15355;DHT22;7777;52.254;9.618;2023-08-06T02:19:15;16.40;99.90
15355;DHT22;7777;52.254;9.618;2023-08-06T02:21:40;16.40;99.90
15355;DHT22;7777;52.254;9.618;2023-08-06T02:24:06;16.40;99.90
15355;DHT22;7777;52.254;9.618;2023-08-06T02:26:32;16.40;99.90
15355;DHT22;7777;52.254;9.618;2023-08-06T02:28:57;16.40;99.90
15355;DHT22;7777;52.254;9.618;2023-08-06T02:31:23;16.30;99.90
15355;DHT22;7777;52.254;9.618;2023-08-06T02:33:49;16.30;99.90
15355;DHT22;7777;52.254;9.618;2023-08-06T02:36:15;16.30;99.90
15355;DHT22;7777;52.254;9.618;2023-08-06T02:38:40;16.30;99.90
15355;DHT22;7777;52.254;9.618;2023-08-06T02:41:06;16.30;99.90
15355;DHT22;7777;52.254;9.618;2023-08-06T02:43:32;16.30;99.90
15355;DHT22;7777;52.254;9.618;2023-08-06T02:46:01;16.30;99.90
15355;DHT22;7777;52.254;9.618;2023-08-06T02:48:27;16.30;99.90
15355;DHT22;7777;52.254;9.618;2023-08-06T02:50:53;16.20;99.90
15355;DHT22;7777;52.254;9.618;2023-08-06T02:53:22;16.30;99.90
15355;DHT22;7777;52.254;9.618;2023-08-06T02:55:48;16.30;99.90
15355;DHT22;7777;52.254;9.618;2023-08-06T02:58:15;16.30;99.90
15355;DHT22;7777;52.254;9.618;2023-08-06T03:00:41;16.20;99.90
15355;DHT22;7777;52.254;9.618;2023-08-06T03:03:08;16.30;99.90
15355;DHT22;7777;52.254;9.618;2023-08-06T03:05:34;16.30;99.90
15355;DHT22;7777;52.254;9.618;2023-08-06T03:08:00;16.30;99.90
15355;DHT22;7777;52.254;9.618;2023-08-06T03:10:26;16.30;99.90
15355;DHT22;7777;52.254;9.618;2023-08-06T03:12:52;16.30;99.90
15355;DHT22;7777;52.254;9.618;2023-08-06T03:15:18;16.20;99.90
15355;DHT22;7777;52.254;9.618;2023-08-06T03:17:43;16.30;99.90
15355;DHT22;7777;52.254;9.618;2023-08-06T03:20:10;16.20;99.90
15355;DHT22;7777;52.254;9.618;2023-08-06T03:22:35;16.20;99.90
15355;DHT22;7777;52.254;9.618;2023-08-06T03:25:02;16.30;99.90
15355;DHT22;7777;52.254;9.618;2023-08-06T03:27:28;16.30;99.90
15355;DHT22;7777;52.254;9.618;2023-08-06T03:29:54;16.20;99.90
15355;DHT22;7777;52.254;9.618;2023-08-06T03:32:20;16.20;99.90
15355;DHT22;7777;52.254;9.618;2023-08-06T03:34:45;16.20;99.90
15355;DHT22;7777;52.254;9.618;2023-08-06T03:37:11;16.20;99.90
15355;DHT22;7777;52.254;9.618;2023-08-06T03:39:37;16.20;99.90
15355;DHT22;7777;52.254;9.618;2023-08-06T03:42:03;16.20;99.90
15355;DHT22;7777;52.254;9.618;2023-08-06T03:44:29;16.20;99.90
15355;DHT22;7777;52.254;9.618;2023-08-06T03:46:56;16.20;99.90
15355;DHT22;7777;52.254;9.618;2023-08-06T03:49:21;16.20;99.90
15355;DHT22;7777;52.254;9.618;2023-08-06T03:51:47;16.20;99.90
15355;DHT22;7777;52.254;9.618;2023-08-06T03:54:13;16.20;99.90
15355;DHT22;7777;52.254;9.618;2023-08-06T03:56:39;16.20;99.90
15355;DHT22;7777;52.254;9.618;2023-08-06T03:59:04;16.20;99.90
15355;DHT22;7777;52.254;9.618;2023-08-06T04:01:30;16.20;99.90
15355;DHT22;7777;52.254;9.618;2023-08-06T04:03:56;16.20;99.90
15355;DHT22;7777;52.254;9.618;2023-08-06T04:06:21;16.20;99.90
15355;DHT22;7777;52.254;9.618;2023-08-06T04:08:47;16.20;99.90
15355;DHT22;7777;52.254;9.618;2023-08-06T04:11:13;16.10;99.90
15355;DHT22;7777;52.254;9.618;2023-08-06T04:13:41;16.10;99.90
15355;DHT22;7777;52.254;9.618;2023-08-06T04:16:08;16.10;99.90
15355;DHT22;7777;52.254;9.618;2023-08-06T04:18:33;16.10;99.90
15355;DHT22;7777;52.254;9.618;2023-08-06T04:20:59;16.00;99.90
15355;DHT22;7777;52.254;9.618;2023-08-06T04:23:27;16.00;99.90
15355;DHT22;7777;52.254;9.618;2023-08-06T04:25:56;16.00;99.90
15355;DHT22;7777;52.254;9.618;2023-08-06T04:28:22;16.00;99.90
15355;DHT22;7777;52.254;9.618;2023-08-06T04:30:48;16.00;99.90
15355;DHT22;7777;52.254;9.618;2023-08-06T04:33:14;15.90;99.90
15355;DHT22;7777;52.254;9.618;2023-08-06T04:35:40;15.90;99.90
15355;DHT22;7777;52.254;9.618;2023-08-06T04:38:05;15.80;99.90
15355;DHT22;7777;52.254;9.618;2023-08-06T04:40:34;15.80;99.90
15355;DHT22;7777;52.254;9.618;2023-08-06T04:43:00;15.80;99.90
15355;DHT22;7777;52.254;9.618;2023-08-06T04:45:26;15.80;99.90
15355;DHT22;7777;52.254;9.618;2023-08-06T04:47:51;15.80;99.90
15355;DHT22;7777;52.254;9.618;2023-08-06T04:50:19;15.80;99.90
15355;DHT22;7777;52.254;9.618;2023-08-06T04:52:45;15.80;99.90
15355;DHT22;7777;52.254;9.618;2023-08-06T04:55:11;15.80;99.90
15355;DHT22;7777;52.254;9.618;2023-08-06T04:57:37;15.80;99.90
15355;DHT22;7777;52.254;9.618;2023-08-06T05:00:03;15.70;99.90
15355;DHT22;7777;52.254;9.618;2023-08-06T05:02:30;15.70;99.90
15355;DHT22;7777;52.254;9.618;2023-08-06T05:04:58;15.70;99.90
15355;DHT22;7777;52.254;9.618;2023-08-06T05:07:23;15.70;99.90
15355;DHT22;7777;52.254;9.618;2023-08-06T05:09:49;15.70;99.90
15355;DHT22;7777;52.254;9.618;2023-08-06T05:12:15;15.80;99.90
15355;DHT22;7777;52.254;9.618;2023-08-06T05:14:41;15.70;99.90
15355;DHT22;7777;52.254;9.618;2023-08-06T05:17:06;15.70;99.90
15355;DHT22;7777;52.254;9.618;2023-08-06T05:19:32;15.80;99.90
15355;DHT22;7777;52.254;9.618;2023-08-06T05:21:58;15.80;99.90
15355;DHT22;7777;52.254;9.618;2023-08-06T05:24:23;15.80;99.90
15355;DHT22;7777;52.254;9.618;2023-08-06T05:26:49;15.80;99.90
15355;DHT22;7777;52.254;9.618;2023-08-06T05:29:16;15.80;99.90
15355;DHT22;7777;52.254;9.618;2023-08-06T05:31:42;15.80;99.90
15355;DHT22;7777;52.254;9.618;2023-08-06T05:34:08;15.80;99.90
15355;DHT22;7777;52.254;9.618;2023-08-06T05:36:33;15.80;99.90
15355;DHT22;7777;52.254;9.618;2023-08-06T05:38:59;15.80;99.90
15355;DHT22;7777;52.254;9.618;2023-08-06T05:41:25;15.90;99.90
15355;DHT22;7777;52.254;9.618;2023-08-06T05:43:50;15.80;99.90
15355;DHT22;7777;52.254;9.618;2023-08-06T05:46:16;15.90;99.90
15355;DHT22;7777;52.254;9.618;2023-08-06T05:48:42;15.90;99.90
15355;DHT22;7777;52.254;9.618;2023-08-06T05:51:08;15.90;99.90
15355;DHT22;7777;52.254;9.618;2023-08-06T05:53:33;15.90;99.90
15355;DHT22;7777;52.254;9.618;2023-08-06T05:55:59;15.90;99.90
15355;DHT22;7777;52.254;9.618;2023-08-06T05:58:25;16.00;99.90
15355;DHT22;7777;52.254;9.618;2023-08-06T06:00:53;16.00;99.90
15355;DHT22;7777;52.254;9.618;2023-08-06T06:03:19;16.00;99.90
15355;DHT22;7777;52.254;9.618;2023-08-06T06:05:45;16.10;99.90
15355;DHT22;7777;52.254;9.618;2023-08-06T06:08:11;16.10;99.90
15355;DHT22;7777;52.254;9.618;2023-08-06T06:10:36;16.10;99.90
15355;DHT22;7777;52.254;9.618;2023-08-06T06:13:02;16.20;99.90
15355;DHT22;7777;52.254;9.618;2023-08-06T06:15:28;16.20;99.90
15355;DHT22;7777;52.254;9.618;2023-08-06T06:17:53;16.30;99.90
15355;DHT22;7777;52.254;9.618;2023-08-06T06:20:19;16.30;99.90
15355;DHT22;7777;52.254;9.618;2023-08-06T06:22:45;16.30;99.90
15355;DHT22;7777;52.254;9.618;2023-08-06T06:25:10;16.40;99.90
15355;DHT22;7777;52.254;9.618;2023-08-06T06:27:36;16.40;99.90
15355;DHT22;7777;52.254;9.618;2023-08-06T06:30:02;16.40;99.90
15355;DHT22;7777;52.254;9.618;2023-08-06T06:32:29;16.50;99.90
15355;DHT22;7777;52.254;9.618;2023-08-06T06:34:55;16.50;99.90
15355;DHT22;7777;52.254;9.618;2023-08-06T06:37:20;16.50;99.90
15355;DHT22;7777;52.254;9.618;2023-08-06T06:39:46;16.60;99.90
15355;DHT22;7777;52.254;9.618;2023-08-06T06:42:12;16.60;99.90
15355;DHT22;7777;52.254;9.618;2023-08-06T06:44:37;16.60;99.90
15355;DHT22;7777;52.254;9.618;2023-08-06T06:47:03;16.60;99.90
15355;DHT22;7777;52.254;9.618;2023-08-06T06:49:29;16.70;99.90
15355;DHT22;7777;52.254;9.618;2023-08-06T06:51:55;16.70;99.90
15355;DHT22;7777;52.254;9.618;2023-08-06T06:54:21;16.70;99.90
15355;DHT22;7777;52.254;9.618;2023-08-06T06:56:46;16.80;99.90
15355;DHT22;7777;52.254;9.618;2023-08-06T06:59:12;16.90;99.90
15355;DHT22;7777;52.254;9.618;2023-08-06T07:01:38;16.90;99.90
15355;DHT22;7777;52.254;9.618;2023-08-06T07:04:04;16.90;99.90
15355;DHT22;7777;52.254;9.618;2023-08-06T07:06:31;17.00;99.90
15355;DHT22;7777;52.254;9.618;2023-08-06T07:08:57;17.00;99.90
15355;DHT22;7777;52.254;9.618;2023-08-06T07:11:22;17.10;99.90
15355;DHT22;7777;52.254;9.618;2023-08-06T07:13:49;17.10;99.90
15355;DHT22;7777;52.254;9.618;2023-08-06T07:16:15;17.20;99.90
15355;DHT22;7777;52.254;9.618;2023-08-06T07:18:41;17.20;99.90
15355;DHT22;7777;52.254;9.618;2023-08-06T07:21:07;17.30;99.90
15355;DHT22;7777;52.254;9.618;2023-08-06T07:23:32;17.30;99.90
15355;DHT22;7777;52.254;9.618;2023-08-06T07:25:58;17.40;99.90
15355;DHT22;7777;52.254;9.618;2023-08-06T07:28:24;17.40;99.90
15355;DHT22;7777;52.254;9.618;2023-08-06T07:30:50;17.50;99.90
15355;DHT22;7777;52.254;9.618;2023-08-06T07:33:16;17.50;99.90
15355;DHT22;7777;52.254;9.618;2023-08-06T07:35:42;17.60;99.90
15355;DHT22;7777;52.254;9.618;2023-08-06T07:38:08;17.60;99.90
15355;DHT22;7777;52.254;9.618;2023-08-06T07:40:36;17.70;99.90
15355;DHT22;7777;52.254;9.618;2023-08-06T07:43:03;17.80;99.90
15355;DHT22;7777;52.254;9.618;2023-08-06T07:45:33;17.80;99.90
15355;DHT22;7777;52.254;9.618;2023-08-06T07:48:00;17.90;99.90
15355;DHT22;7777;52.254;9.618;2023-08-06T07:50:26;17.90;99.90
15355;DHT22;7777;52.254;9.618;2023-08-06T07:52:51;17.90;99.90
15355;DHT22;7777;52.254;9.618;2023-08-06T07:55:17;18.00;99.90
15355;DHT22;7777;52.254;9.618;2023-08-06T07:57:43;18.00;99.90
15355;DHT22;7777;52.254;9.618;2023-08-06T08:00:09;18.00;99.90
15355;DHT22;7777;52.254;9.618;2023-08-06T08:02:35;18.00;99.90
15355;DHT22;7777;52.254;9.618;2023-08-06T08:05:01;18.00;99.90
15355;DHT22;7777;52.254;9.618;2023-08-06T08:07:27;18.10;99.90
15355;DHT22;7777;52.254;9.618;2023-08-06T08:09:55;18.10;99.90
15355;DHT22;7777;52.254;9.618;2023-08-06T08:12:22;18.10;99.90
15355;DHT22;7777;52.254;9.618;2023-08-06T08:14:48;18.10;99.90
15355;DHT22;7777;52.254;9.618;2023-08-06T08:17:14;18.10;99.90
15355;DHT22;7777;52.254;9.618;2023-08-06T08:19:40;18.10;99.90
15355;DHT22;7777;52.254;9.618;2023-08-06T08:22:06;18.20;99.90
15355;DHT22;7777;52.254;9.618;2023-08-06T08:24:32;18.20;99.90
15355;DHT22;7777;52.254;9.618;2023-08-06T08:26:58;18.20;99.90
15355;DHT22;7777;52.254;9.618;2023-08-06T08:29:24;18.20;99.90
15355;DHT22;7777;52.254;9.618;2023-08-06T08:31:49;18.20;99.90
15355;DHT22;7777;52.254;9.618;2023-08-06T08:34:18;18.30;99.90
15355;DHT22;7777;52.254;9.618;2023-08-06T08:36:44;18.30;99.90
15355;DHT22;7777;52.254;9.618;2023-08-06T08:39:13;18.30;99.90
15355;DHT22;7777;52.254;9.618;2023-08-06T08:41:39;18.30;99.90
15355;DHT22;7777;52.254;9.618;2023-08-06T08:44:14;18.40;99.90
15355;DHT22;7777;52.254;9.618;2023-08-06T08:46:42;18.40;99.90
15355;DHT22;7777;52.254;9.618;2023-08-06T08:49:08;18.50;99.90
15355;DHT22;7777;52.254;9.618;2023-08-06T08:51:34;18.50;99.90
15355;DHT22;7777;52.254;9.618;2023-08-06T08:54:07;18.60;99.90
15355;DHT22;7777;52.254;9.618;2023-08-06T08:56:33;18.60;99.90
15355;DHT22;7777;52.254;9.618;2023-08-06T08:58:59;18.70;99.90
15355;DHT22;7777;52.254;9.618;2023-08-06T09:01:25;18.70;99.90
15355;DHT22;7777;52.254;9.618;2023-08-06T09:03:51;18.70;99.90
15355;DHT22;7777;52.254;9.618;2023-08-06T09:06:19;18.80;99.90
15355;DHT22;7777;52.254;9.618;2023-08-06T09:08:59;18.80;99.90
15355;DHT22;7777;52.254;9.618;2023-08-06T09:11:28;18.80;99.90
15355;DHT22;7777;52.254;9.618;2023-08-06T09:13:56;18.90;99.90
15355;DHT22;7777;52.254;9.618;2023-08-06T09:16:23;18.90;99.90
15355;DHT22;7777;52.254;9.618;2023-08-06T09:18:49;19.00;99.90
15355;DHT22;7777;52.254;9.618;2023-08-06T09:21:15;19.10;99.90
15355;DHT22;7777;52.254;9.618;2023-08-06T09:23:43;19.20;99.90
15355;DHT22;7777;52.254;9.618;2023-08-06T09:26:12;19.20;99.90
15355;DHT22;7777;52.254;9.618;2023-08-06T09:28:39;19.30;99.90
15355;DHT22;7777;52.254;9.618;2023-08-06T09:31:08;19.40;99.90
15355;DHT22;7777;52.254;9.618;2023-08-06T09:33:36;19.50;99.90
15355;DHT22;7777;52.254;9.618;2023-08-06T09:36:10;19.60;99.90
15355;DHT22;7777;52.254;9.618;2023-08-06T09:38:40;19.60;99.90
15355;DHT22;7777;52.254;9.618;2023-08-06T09:41:07;19.70;99.90
15355;DHT22;7777;52.254;9.618;2023-08-06T09:43:43;19.70;99.90
15355;DHT22;7777;52.254;9.618;2023-08-06T09:46:14;19.80;99.90
15355;DHT22;7777;52.254;9.618;2023-08-06T09:48:45;19.90;99.90
15355;DHT22;7777;52.254;9.618;2023-08-06T09:51:13;19.90;99.90
15355;DHT22;7777;52.254;9.618;2023-08-06T09:53:40;19.90;99.90
15355;DHT22;7777;52.254;9.618;2023-08-06T09:56:06;19.90;99.90
15355;DHT22;7777;52.254;9.618;2023-08-06T09:58:33;19.90;99.90
15355;DHT22;7777;52.254;9.618;2023-08-06T10:01:00;19.90;99.90
15355;DHT22;7777;52.254;9.618;2023-08-06T10:03:27;20.00;99.90
15355;DHT22;7777;52.254;9.618;2023-08-06T10:05:55;20.10;99.90
15355;DHT22;7777;52.254;9.618;2023-08-06T10:08:23;20.10;99.90
15355;DHT22;7777;52.254;9.618;2023-08-06T10:10:49;20.20;99.90
15355;DHT22;7777;52.254;9.618;2023-08-06T10:13:16;20.20;99.90
15355;DHT22;7777;52.254;9.618;2023-08-06T10:15:42;20.20;99.90
15355;DHT22;7777;52.254;9.618;2023-08-06T10:18:08;20.30;99.90
15355;DHT22;7777;52.254;9.618;2023-08-06T10:20:35;20.30;99.90
15355;DHT22;7777;52.254;9.618;2023-08-06T10:23:02;20.30;99.90
15355;DHT22;7777;52.254;9.618;2023-08-06T10:25:40;20.30;99.90
15355;DHT22;7777;52.254;9.618;2023-08-06T10:28:08;20.40;99.90
15355;DHT22;7777;52.254;9.618;2023-08-06T10:30:41;20.40;99.90
15355;DHT22;7777;52.254;9.618;2023-08-06T10:33:08;20.60;99.90
15355;DHT22;7777;52.254;9.618;2023-08-06T10:35:47;20.70;99.90
15355;DHT22;7777;52.254;9.618;2023-08-06T10:41:01;20.90;99.90
15355;DHT22;7777;52.254;9.618;2023-08-06T10:43:35;21.00;99.90
15355;DHT22;7777;52.254;9.618;2023-08-06T10:46:08;21.10;99.90
15355;DHT22;7777;52.254;9.618;2023-08-06T10:48:36;21.10;99.90
15355;DHT22;7777;52.254;9.618;2023-08-06T10:51:12;21.10;99.90
15355;DHT22;7777;52.254;9.618;2023-08-06T10:53:47;21.10;99.90
15355;DHT22;7777;52.254;9.618;2023-08-06T10:56:14;21.10;99.90
15355;DHT22;7777;52.254;9.618;2023-08-06T10:58:48;21.10;99.90
15355;DHT22;7777;52.254;9.618;2023-08-06T11:01:14;21.00;99.90
15355;DHT22;7777;52.254;9.618;2023-08-06T11:03:41;21.00;99.90
15355;DHT22;7777;52.254;9.618;2023-08-06T11:06:09;21.00;99.90
15355;DHT22;7777;52.254;9.618;2023-08-06T11:08:40;21.00;99.90
15355;DHT22;7777;52.254;9.618;2023-08-06T11:11:17;20.90;99.90
15355;DHT22;7777;52.254;9.618;2023-08-06T11:13:46;20.90;99.90
15355;DHT22;7777;52.254;9.618;2023-08-06T11:16:14;20.90;99.90
15355;DHT22;7777;52.254;9.618;2023-08-06T11:18:41;20.80;99.90
15355;DHT22;7777;52.254;9.618;2023-08-06T11:21:08;20.80;99.90
15355;DHT22;7777;52.254;9.618;2023-08-06T11:23:34;20.70;99.90
15355;DHT22;7777;52.254;9.618;2023-08-06T11:26:01;20.70;99.90
15355;DHT22;7777;52.254;9.618;2023-08-06T11:28:27;20.70;99.90
15355;DHT22;7777;52.254;9.618;2023-08-06T11:30:53;20.70;99.90
15355;DHT22;7777;52.254;9.618;2023-08-06T11:33:25;20.70;99.90
15355;DHT22;7777;52.254;9.618;2023-08-06T11:35:52;20.70;99.90
15355;DHT22;7777;52.254;9.618;2023-08-06T11:38:20;20.70;99.90
15355;DHT22;7777;52.254;9.618;2023-08-06T11:40:46;20.70;99.90
15355;DHT22;7777;52.254;9.618;2023-08-06T11:43:13;20.70;99.90
15355;DHT22;7777;52.254;9.618;2023-08-06T11:45:39;20.70;99.90
15355;DHT22;7777;52.254;9.618;2023-08-06T11:48:06;20.70;99.90
15355;DHT22;7777;52.254;9.618;2023-08-06T11:50:39;20.70;99.90
15355;DHT22;7777;52.254;9.618;2023-08-06T11:53:05;20.70;99.90
15355;DHT22;7777;52.254;9.618;2023-08-06T11:55:31;20.70;99.90
15355;DHT22;7777;52.254;9.618;2023-08-06T11:58:02;20.70;99.90
15355;DHT22;7777;52.254;9.618;2023-08-06T12:00:29;20.80;99.90
15355;DHT22;7777;52.254;9.618;2023-08-06T12:02:56;20.80;99.90
15355;DHT22;7777;52.254;9.618;2023-08-06T12:05:32;20.90;99.90
15355;DHT22;7777;52.254;9.618;2023-08-06T12:07:59;20.90;99.90
15355;DHT22;7777;52.254;9.618;2023-08-06T12:10:28;21.10;99.90
15355;DHT22;7777;52.254;9.618;2023-08-06T12:12:54;21.20;99.90
15355;DHT22;7777;52.254;9.618;2023-08-06T12:15:21;21.30;99.90
15355;DHT22;7777;52.254;9.618;2023-08-06T12:17:47;21.50;99.90
15355;DHT22;7777;52.254;9.618;2023-08-06T12:20:14;21.60;99.90
15355;DHT22;7777;52.254;9.618;2023-08-06T12:22:40;21.70;99.90
15355;DHT22;7777;52.254;9.618;2023-08-06T12:25:11;21.80;99.90
15355;DHT22;7777;52.254;9.618;2023-08-06T12:27:39;21.90;99.90
15355;DHT22;7777;52.254;9.618;2023-08-06T12:30:09;22.00;99.90
15355;DHT22;7777;52.254;9.618;2023-08-06T12:32:36;21.90;99.90
15355;DHT22;7777;52.254;9.618;2023-08-06T12:35:03;22.00;99.90
15355;DHT22;7777;52.254;9.618;2023-08-06T12:37:30;21.90;99.90
15355;DHT22;7777;52.254;9.618;2023-08-06T12:40:00;21.80;99.90
15355;DHT22;7777;52.254;9.618;2023-08-06T12:42:26;21.90;99.90
15355;DHT22;7777;52.254;9.618;2023-08-06T12:44:58;21.80;99.90
15355;DHT22;7777;52.254;9.618;2023-08-06T12:47:24;21.80;99.90
15355;DHT22;7777;52.254;9.618;2023-08-06T12:49:50;21.80;99.90
15355;DHT22;7777;52.254;9.618;2023-08-06T12:52:17;21.80;99.90
15355;DHT22;7777;52.254;9.618;2023-08-06T12:54:45;21.80;99.90
15355;DHT22;7777;52.254;9.618;2023-08-06T12:57:12;21.70;99.90
15355;DHT22;7777;52.254;9.618;2023-08-06T12:59:38;21.70;99.90
15355;DHT22;7777;52.254;9.618;2023-08-06T13:02:10;21.70;99.90
15355;DHT22;7777;52.254;9.618;2023-08-06T13:04:36;21.70;99.90
15355;DHT22;7777;52.254;9.618;2023-08-06T13:07:05;21.70;99.90
15355;DHT22;7777;52.254;9.618;2023-08-06T13:09:32;21.70;99.90
15355;DHT22;7777;52.254;9.618;2023-08-06T13:12:08;21.60;99.90
15355;DHT22;7777;52.254;9.618;2023-08-06T13:14:59;21.70;99.90
15355;DHT22;7777;52.254;9.618;2023-08-06T13:20:25;21.70;99.90
15355;DHT22;7777;52.254;9.618;2023-08-06T13:23:08;21.70;99.90
15355;DHT22;7777;52.254;9.618;2023-08-06T13:25:45;21.80;99.90
15355;DHT22;7777;52.254;9.618;2023-08-06T13:28:39;21.80;99.90
15355;DHT22;7777;52.254;9.618;2023-08-06T13:31:12;21.80;99.90
15355;DHT22;7777;52.254;9.618;2023-08-06T13:33:39;21.80;99.90
15355;DHT22;7777;52.254;9.618;2023-08-06T13:36:09;21.80;99.90
15355;DHT22;7777;52.254;9.618;2023-08-06T13:38:40;21.80;99.90
15355;DHT22;7777;52.254;9.618;2023-08-06T13:41:06;21.80;99.90
15355;DHT22;7777;52.254;9.618;2023-08-06T13:43:36;21.80;99.90
15355;DHT22;7777;52.254;9.618;2023-08-06T13:46:03;21.90;99.90
15355;DHT22;7777;52.254;9.618;2023-08-06T13:48:29;21.80;99.90
15355;DHT22;7777;52.254;9.618;2023-08-06T13:51:00;21.90;99.90
15355;DHT22;7777;52.254;9.618;2023-08-06T13:53:46;21.90;99.90
15355;DHT22;7777;52.254;9.618;2023-08-06T13:56:14;21.90;99.90
15355;DHT22;7777;52.254;9.618;2023-08-06T13:58:43;21.90;99.90
15355;DHT22;7777;52.254;9.618;2023-08-06T14:01:16;22.00;99.90
15355;DHT22;7777;52.254;9.618;2023-08-06T14:03:51;22.00;99.90
15355;DHT22;7777;52.254;9.618;2023-08-06T14:06:20;22.10;99.90
15355;DHT22;7777;52.254;9.618;2023-08-06T14:08:54;22.10;99.90
15355;DHT22;7777;52.254;9.618;2023-08-06T14:11:23;22.20;99.90
15355;DHT22;7777;52.254;9.618;2023-08-06T14:13:50;22.20;99.90
15355;DHT22;7777;52.254;9.618;2023-08-06T14:16:21;22.20;99.90
15355;DHT22;7777;52.254;9.618;2023-08-06T14:18:47;22.20;99.90
15355;DHT22;7777;52.254;9.618;2023-08-06T14:21:13;22.20;99.90
15355;DHT22;7777;52.254;9.618;2023-08-06T14:23:39;22.20;99.90
15355;DHT22;7777;52.254;9.618;2023-08-06T14:26:07;22.20;99.90
15355;DHT22;7777;52.254;9.618;2023-08-06T14:28:36;22.30;99.90
15355;DHT22;7777;52.254;9.618;2023-08-06T14:31:05;22.30;99.90
15355;DHT22;7777;52.254;9.618;2023-08-06T14:33:31;22.30;99.90
15355;DHT22;7777;52.254;9.618;2023-08-06T14:35:57;22.40;99.90
15355;DHT22;7777;52.254;9.618;2023-08-06T14:38:23;22.40;99.90
15355;DHT22;7777;52.254;9.618;2023-08-06T14:40:49;22.30;99.90
15355;DHT22;7777;52.254;9.618;2023-08-06T14:43:16;22.30;99.90
15355;DHT22;7777;52.254;9.618;2023-08-06T14:45:42;22.30;99.90
15355;DHT22;7777;52.254;9.618;2023-08-06T14:48:08;22.30;99.90
15355;DHT22;7777;52.254;9.618;2023-08-06T14:50:42;22.20;99.90
15355;DHT22;7777;52.254;9.618;2023-08-06T14:53:08;22.20;99.90
15355;DHT22;7777;52.254;9.618;2023-08-06T14:55:36;22.10;99.90
15355;DHT22;7777;52.254;9.618;2023-08-06T14:58:02;22.00;99.90
15355;DHT22;7777;52.254;9.618;2023-08-06T15:00:28;22.00;99.90
15355;DHT22;7777;52.254;9.618;2023-08-06T15:02:54;22.00;99.90
15355;DHT22;7777;52.254;9.618;2023-08-06T15:05:21;21.90;99.90
15355;DHT22;7777;52.254;9.618;2023-08-06T15:07:49;21.80;99.90
15355;DHT22;7777;52.254;9.618;2023-08-06T15:10:18;21.80;99.90
15355;DHT22;7777;52.254;9.618;2023-08-06T15:12:44;21.70;99.90
15355;DHT22;7777;52.254;9.618;2023-08-06T15:15:11;21.70;99.90
15355;DHT22;7777;52.254;9.618;2023-08-06T15:17:37;21.60;99.90
15355;DHT22;7777;52.254;9.618;2023-08-06T15:20:03;21.60;99.90
15355;DHT22;7777;52.254;9.618;2023-08-06T15:22:30;21.60;99.90
15355;DHT22;7777;52.254;9.618;2023-08-06T15:25:01;21.60;99.90
15355;DHT22;7777;52.254;9.618;2023-08-06T15:27:28;21.50;99.90
15355;DHT22;7777;52.254;9.618;2023-08-06T15:29:55;21.60;99.90
15355;DHT22;7777;52.254;9.618;2023-08-06T15:32:21;21.60;99.90
15355;DHT22;7777;52.254;9.618;2023-08-06T15:34:48;21.50;99.90
15355;DHT22;7777;52.254;9.618;2023-08-06T15:37:14;21.50;99.90
15355;DHT22;7777;52.254;9.618;2023-08-06T15:39:41;21.50;99.90
15355;DHT22;7777;52.254;9.618;2023-08-06T15:42:07;21.60;99.90
15355;DHT22;7777;52.254;9.618;2023-08-06T15:44:35;21.60;99.90
15355;DHT22;7777;52.254;9.618;2023-08-06T15:47:02;21.50;99.90
15355;DHT22;7777;52.254;9.618;2023-08-06T15:49:30;21.50;99.90
15355;DHT22;7777;52.254;9.618;2023-08-06T15:51:59;21.50;99.90
15355;DHT22;7777;52.254;9.618;2023-08-06T15:54:27;21.50;99.90